sensor_id;sensor_type;location;lat;lon;timestamp;P1;durP1;ratioP1;P2;durP2;ratioP2
29774;SDS011;16676;51.202;6.774;2024-01-10T00:02:38;4.80;;;3.28;;
29774;SDS011;16676;51.202;6.774;2024-01-10T00:06:41;5.13;;;3.50;;
29774;SDS011;16676;51.202;6.774;2024-01-10T00:10:43;5.07;;;3.63;;
29774;SDS011;16676;51.202;6.774;2024-01-10T00:14:45;5.60;;;3.42;;
29774;SDS011;16676;51.202;6.774;2024-01-10T00:18:46;8.00;;;3.90;;
29774;SDS011;16676;51.202;6.774;2024-01-10T00:22:50;6.43;;;3.80;;
29774;SDS011;16676;51.202;6.774;2024-01-10T00:26:51;6.40;;;3.42;;
29774;SDS011;16676;51.202;6.774;2024-01-10T00:30:53;4.78;;;3.53;;
29774;SDS011;16676;51.202;6.774;2024-01-10T00:34:55;5.18;;;3.30;;
29774;SDS011;16676;51.202;6.774;2024-01-10T00:38:58;4.07;;;3.08;;
29774;SDS011;16676;51.202;6.774;2024-01-10T00:43:00;4.70;;;3.13;;
29774;SDS011;16676;51.202;6.774;2024-01-10T00:47:02;4.10;;;2.92;;
29774;SDS011;16676;51.202;6.774;2024-01-10T00:51:05;4.40;;;3.22;;
29774;SDS011;16676;51.202;6.774;2024-01-10T00:55:10;3.80;;;2.95;;
29774;SDS011;16676;51.202;6.774;2024-01-10T00:59:12;4.78;;;3.22;;
29774;SDS011;16676;51.202;6.774;2024-01-10T01:03:14;4.55;;;3.40;;
29774;SDS011;16676;51.202;6.774;2024-01-10T01:07:16;5.35;;;3.33;;
29774;SDS011;16676;51.202;6.774;2024-01-10T01:11:19;5.82;;;3.10;;
29774;SDS011;16676;51.202;6.774;2024-01-10T01:15:21;4.07;;;2.92;;
29774;SDS011;16676;51.202;6.774;2024-01-10T01:19:23;4.85;;;3.13;;
29774;SDS011;16676;51.202;6.774;2024-01-10T01:23:26;6.05;;;2.88;;
29774;SDS011;16676;51.202;6.774;2024-01-10T01:27:29;3.88;;;3.10;;
29774;SDS011;16676;51.202;6.774;2024-01-10T01:31:31;4.03;;;2.80;;
29774;SDS011;16676;51.202;6.774;2024-01-10T01:35:33;6.72;;;2.97;;
29774;SDS011;16676;51.202;6.774;2024-01-10T01:39:35;4.03;;;2.60;;
29774;SDS011;16676;51.202;6.774;2024-01-10T01:43:38;4.05;;;2.53;;
29774;SDS011;16676;51.202;6.774;2024-01-10T01:47:40;5.28;;;2.90;;
29774;SDS011;16676;51.202;6.774;2024-01-10T01:51:42;4.75;;;3.00;;
29774;SDS011;16676;51.202;6.774;2024-01-10T01:55:45;4.43;;;3.13;;
29774;SDS011;16676;51.202;6.774;2024-01-10T01:59:48;4.40;;;2.78;;
29774;SDS011;16676;51.202;6.774;2024-01-10T02:03:50;3.53;;;2.85;;
29774;SDS011;16676;51.202;6.774;2024-01-10T02:07:53;4.93;;;3.15;;
29774;SDS011;16676;51.202;6.774;2024-01-10T02:11:55;4.20;;;2.70;;
29774;SDS011;16676;51.202;6.774;2024-01-10T02:15:58;3.70;;;2.72;;
29774;SDS011;16676;51.202;6.774;2024-01-10T02:20:07;4.63;;;2.80;;
29774;SDS011;16676;51.202;6.774;2024-01-10T02:24:10;5.70;;;3.08;;
29774;SDS011;16676;51.202;6.774;2024-01-10T02:28:13;4.63;;;2.72;;
29774;SDS011;16676;51.202;6.774;2024-01-10T02:32:15;4.22;;;2.80;;
29774;SDS011;16676;51.202;6.774;2024-01-10T02:36:17;3.63;;;2.60;;
29774;SDS011;16676;51.202;6.774;2024-01-10T02:40:19;6.07;;;2.90;;
29774;SDS011;16676;51.202;6.774;2024-01-10T02:44:22;4.13;;;2.67;;
29774;SDS011;16676;51.202;6.774;2024-01-10T02:48:24;4.68;;;2.63;;
29774;SDS011;16676;51.202;6.774;2024-01-10T02:52:26;3.50;;;2.60;;
29774;SDS011;16676;51.202;6.774;2024-01-10T02:56:28;3.55;;;2.80;;
29774;SDS011;16676;51.202;6.774;2024-01-10T03:00:31;3.88;;;2.50;;
29774;SDS011;16676;51.202;6.774;2024-01-10T03:04:33;5.00;;;2.55;;
29774;SDS011;16676;51.202;6.774;2024-01-10T03:08:35;3.17;;;2.47;;
29774;SDS011;16676;51.202;6.774;2024-01-10T03:12:37;4.45;;;2.55;;
29774;SDS011;16676;51.202;6.774;2024-01-10T03:16:40;3.47;;;2.50;;
29774;SDS011;16676;51.202;6.774;2024-01-10T03:20:42;4.70;;;2.65;;
29774;SDS011;16676;51.202;6.774;2024-01-10T03:24:44;4.50;;;2.35;;
29774;SDS011;16676;51.202;6.774;2024-01-10T03:28:46;4.30;;;2.53;;
29774;SDS011;16676;51.202;6.774;2024-01-10T03:32:50;4.25;;;2.70;;
29774;SDS011;16676;51.202;6.774;2024-01-10T03:36:52;3.80;;;2.40;;
29774;SDS011;16676;51.202;6.774;2024-01-10T03:40:53;3.28;;;2.30;;
29774;SDS011;16676;51.202;6.774;2024-01-10T03:44:55;4.22;;;2.45;;
29774;SDS011;16676;51.202;6.774;2024-01-10T03:48:58;3.47;;;2.50;;
29774;SDS011;16676;51.202;6.774;2024-01-10T03:53:00;3.63;;;2.50;;
29774;SDS011;16676;51.202;6.774;2024-01-10T03:57:03;4.05;;;2.40;;
29774;SDS011;16676;51.202;6.774;2024-01-10T04:01:05;3.22;;;2.20;;
29774;SDS011;16676;51.202;6.774;2024-01-10T04:05:09;4.70;;;2.50;;
29774;SDS011;16676;51.202;6.774;2024-01-10T04:09:12;3.13;;;2.10;;
29774;SDS011;16676;51.202;6.774;2024-01-10T04:13:14;3.20;;;2.50;;
29774;SDS011;16676;51.202;6.774;2024-01-10T04:17:16;3.03;;;2.20;;
29774;SDS011;16676;51.202;6.774;2024-01-10T04:21:19;3.80;;;2.10;;
29774;SDS011;16676;51.202;6.774;2024-01-10T04:25:21;3.35;;;2.38;;
29774;SDS011;16676;51.202;6.774;2024-01-10T04:29:23;3.20;;;2.28;;
29774;SDS011;16676;51.202;6.774;2024-01-10T04:33:25;3.38;;;2.63;;
29774;SDS011;16676;51.202;6.774;2024-01-10T04:37:28;3.90;;;2.70;;
29774;SDS011;16676;51.202;6.774;2024-01-10T04:41:30;4.47;;;2.75;;
29774;SDS011;16676;51.202;6.774;2024-01-10T04:45:32;3.95;;;2.60;;
29774;SDS011;16676;51.202;6.774;2024-01-10T04:49:34;3.50;;;2.42;;
29774;SDS011;16676;51.202;6.774;2024-01-10T04:53:37;4.20;;;2.65;;
29774;SDS011;16676;51.202;6.774;2024-01-10T04:57:39;4.65;;;3.17;;
29774;SDS011;16676;51.202;6.774;2024-01-10T05:01:41;4.28;;;3.10;;
29774;SDS011;16676;51.202;6.774;2024-01-10T05:05:43;5.43;;;3.33;;
29774;SDS011;16676;51.202;6.774;2024-01-10T05:09:46;5.10;;;3.22;;
29774;SDS011;16676;51.202;6.774;2024-01-10T05:13:48;6.15;;;3.35;;
29774;SDS011;16676;51.202;6.774;2024-01-10T05:17:50;12.82;;;3.20;;
29774;SDS011;16676;51.202;6.774;2024-01-10T05:21:52;6.57;;;3.17;;
29774;SDS011;16676;51.202;6.774;2024-01-10T05:25:56;8.10;;;3.10;;
29774;SDS011;16676;51.202;6.774;2024-01-10T05:29:59;7.18;;;3.65;;
29774;SDS011;16676;51.202;6.774;2024-01-10T05:34:01;16.58;;;3.17;;
29774;SDS011;16676;51.202;6.774;2024-01-10T05:38:03;11.95;;;3.17;;
29774;SDS011;16676;51.202;6.774;2024-01-10T05:42:06;9.68;;;3.97;;
29774;SDS011;16676;51.202;6.774;2024-01-10T05:46:08;10.85;;;3.95;;
29774;SDS011;16676;51.202;6.774;2024-01-10T05:50:10;9.80;;;3.95;;
29774;SDS011;16676;51.202;6.774;2024-01-10T05:54:12;14.95;;;4.03;;
29774;SDS011;16676;51.202;6.774;2024-01-10T05:58:17;10.10;;;4.05;;
29774;SDS011;16676;51.202;6.774;2024-01-10T06:02:19;13.20;;;4.40;;
29774;SDS011;16676;51.202;6.774;2024-01-10T06:06:20;8.55;;;3.95;;
29774;SDS011;16676;51.202;6.774;2024-01-10T06:10:22;8.30;;;3.67;;
29774;SDS011;16676;51.202;6.774;2024-01-10T06:14:26;6.88;;;3.92;;
29774;SDS011;16676;51.202;6.774;2024-01-10T06:18:28;6.97;;;4.50;;
29774;SDS011;16676;51.202;6.774;2024-01-10T06:22:29;7.68;;;4.00;;
29774;SDS011;16676;51.202;6.774;2024-01-10T06:26:31;6.10;;;4.10;;
29774;SDS011;16676;51.202;6.774;2024-01-10T06:30:35;5.95;;;3.63;;
29774;SDS011;16676;51.202;6.774;2024-01-10T06:34:37;9.65;;;4.25;;
29774;SDS011;16676;51.202;6.774;2024-01-10T06:38:39;7.70;;;4.22;;
29774;SDS011;16676;51.202;6.774;2024-01-10T06:42:41;13.20;;;6.97;;
29774;SDS011;16676;51.202;6.774;2024-01-10T06:46:44;12.82;;;7.13;;
29774;SDS011;16676;51.202;6.774;2024-01-10T06:50:46;16.08;;;8.38;;
29774;SDS011;16676;51.202;6.774;2024-01-10T06:54:48;16.67;;;8.30;;
29774;SDS011;16676;51.202;6.774;2024-01-10T06:58:50;12.77;;;8.10;;
29774;SDS011;16676;51.202;6.774;2024-01-10T07:02:53;15.95;;;7.53;;
29774;SDS011;16676;51.202;6.774;2024-01-10T07:06:55;10.60;;;6.53;;
29774;SDS011;16676;51.202;6.774;2024-01-10T07:10:57;13.95;;;6.45;;
29774;SDS011;16676;51.202;6.774;2024-01-10T07:14:58;10.45;;;5.85;;
29774;SDS011;16676;51.202;6.774;2024-01-10T07:19:02;12.77;;;5.93;;
29774;SDS011;16676;51.202;6.774;2024-01-10T07:23:04;14.75;;;5.75;;
29774;SDS011;16676;51.202;6.774;2024-01-10T07:27:06;10.85;;;5.70;;
29774;SDS011;16676;51.202;6.774;2024-01-10T07:31:08;10.05;;;5.28;;
29774;SDS011;16676;51.202;6.774;2024-01-10T07:35:11;13.90;;;5.47;;
29774;SDS011;16676;51.202;6.774;2024-01-10T07:39:14;8.18;;;4.50;;
29774;SDS011;16676;51.202;6.774;2024-01-10T07:43:18;10.05;;;5.05;;
29774;SDS011;16676;51.202;6.774;2024-01-10T07:47:20;9.82;;;4.53;;
29774;SDS011;16676;51.202;6.774;2024-01-10T07:51:23;6.88;;;4.45;;
29774;SDS011;16676;51.202;6.774;2024-01-10T07:55:25;11.68;;;4.85;;
29774;SDS011;16676;51.202;6.774;2024-01-10T07:59:29;8.50;;;4.60;;
29774;SDS011;16676;51.202;6.774;2024-01-10T08:03:31;6.95;;;4.13;;
29774;SDS011;16676;51.202;6.774;2024-01-10T08:07:35;9.13;;;4.65;;
29774;SDS011;16676;51.202;6.774;2024-01-10T08:11:38;8.38;;;4.25;;
29774;SDS011;16676;51.202;6.774;2024-01-10T08:15:40;8.45;;;4.47;;
29774;SDS011;16676;51.202;6.774;2024-01-10T08:19:43;8.05;;;4.35;;
29774;SDS011;16676;51.202;6.774;2024-01-10T08:23:46;8.27;;;4.35;;
29774;SDS011;16676;51.202;6.774;2024-01-10T08:27:48;6.68;;;4.07;;
29774;SDS011;16676;51.202;6.774;2024-01-10T08:31:50;7.55;;;4.50;;
29774;SDS011;16676;51.202;6.774;2024-01-10T08:35:52;7.00;;;4.07;;
29774;SDS011;16676;51.202;6.774;2024-01-10T08:39:55;10.68;;;4.63;;
29774;SDS011;16676;51.202;6.774;2024-01-10T08:43:57;8.50;;;4.53;;
29774;SDS011;16676;51.202;6.774;2024-01-10T08:48:00;8.13;;;4.28;;
29774;SDS011;16676;51.202;6.774;2024-01-10T08:52:02;7.50;;;4.50;;
29774;SDS011;16676;51.202;6.774;2024-01-10T08:56:06;6.45;;;4.20;;
29774;SDS011;16676;51.202;6.774;2024-01-10T09:00:08;6.57;;;3.83;;
29774;SDS011;16676;51.202;6.774;2024-01-10T09:04:12;7.15;;;4.43;;
29774;SDS011;16676;51.202;6.774;2024-01-10T09:08:14;6.32;;;3.53;;
29774;SDS011;16676;51.202;6.774;2024-01-10T09:12:18;7.22;;;3.80;;
29774;SDS011;16676;51.202;6.774;2024-01-10T09:16:20;5.97;;;3.80;;
29774;SDS011;16676;51.202;6.774;2024-01-10T09:20:22;5.57;;;3.75;;
29774;SDS011;16676;51.202;6.774;2024-01-10T09:24:24;7.72;;;3.85;;
29774;SDS011;16676;51.202;6.774;2024-01-10T09:28:28;6.00;;;3.75;;
29774;SDS011;16676;51.202;6.774;2024-01-10T09:32:29;5.47;;;3.63;;
29774;SDS011;16676;51.202;6.774;2024-01-10T09:36:31;6.22;;;3.72;;
29774;SDS011;16676;51.202;6.774;2024-01-10T09:40:33;6.05;;;3.60;;
29774;SDS011;16676;51.202;6.774;2024-01-10T09:44:37;7.28;;;3.72;;
29774;SDS011;16676;51.202;6.774;2024-01-10T09:48:39;7.25;;;4.05;;
29774;SDS011;16676;51.202;6.774;2024-01-10T09:52:41;6.00;;;3.75;;
29774;SDS011;16676;51.202;6.774;2024-01-10T09:56:51;4.90;;;3.50;;
29774;SDS011;16676;51.202;6.774;2024-01-10T10:00:55;6.38;;;4.18;;
29774;SDS011;16676;51.202;6.774;2024-01-10T10:04:59;6.95;;;4.10;;
29774;SDS011;16676;51.202;6.774;2024-01-10T10:09:04;5.50;;;3.30;;
29774;SDS011;16676;51.202;6.774;2024-01-10T10:13:09;5.63;;;3.88;;
29774;SDS011;16676;51.202;6.774;2024-01-10T10:17:16;5.25;;;3.55;;
29774;SDS011;16676;51.202;6.774;2024-01-10T10:21:19;7.27;;;3.77;;
29774;SDS011;16676;51.202;6.774;2024-01-10T10:25:20;8.75;;;4.13;;
29774;SDS011;16676;51.202;6.774;2024-01-10T10:29:25;7.18;;;3.80;;
29774;SDS011;16676;51.202;6.774;2024-01-10T10:33:28;5.65;;;3.67;;
29774;SDS011;16676;51.202;6.774;2024-01-10T10:37:33;5.78;;;3.22;;
29774;SDS011;16676;51.202;6.774;2024-01-10T10:41:35;6.70;;;3.65;;
29774;SDS011;16676;51.202;6.774;2024-01-10T10:45:38;6.13;;;3.67;;
29774;SDS011;16676;51.202;6.774;2024-01-10T10:49:47;5.35;;;3.65;;
29774;SDS011;16676;51.202;6.774;2024-01-10T10:53:54;4.80;;;3.22;;
29774;SDS011;16676;51.202;6.774;2024-01-10T10:57:58;5.03;;;3.22;;
29774;SDS011;16676;51.202;6.774;2024-01-10T11:02:05;6.22;;;3.72;;
29774;SDS011;16676;51.202;6.774;2024-01-10T11:06:10;5.22;;;3.30;;
29774;SDS011;16676;51.202;6.774;2024-01-10T11:10:13;6.63;;;3.65;;
29774;SDS011;16676;51.202;6.774;2024-01-10T11:14:21;5.28;;;3.58;;
29774;SDS011;16676;51.202;6.774;2024-01-10T11:18:40;6.68;;;3.75;;
29774;SDS011;16676;51.202;6.774;2024-01-10T11:23:00;6.45;;;3.75;;
29774;SDS011;16676;51.202;6.774;2024-01-10T11:27:17;6.15;;;3.95;;
29774;SDS011;16676;51.202;6.774;2024-01-10T11:31:27;6.63;;;3.78;;
29774;SDS011;16676;51.202;6.774;2024-01-10T11:35:29;6.85;;;3.15;;
29774;SDS011;16676;51.202;6.774;2024-01-10T11:39:33;5.78;;;3.10;;
29774;SDS011;16676;51.202;6.774;2024-01-10T11:43:36;6.63;;;3.70;;
29774;SDS011;16676;51.202;6.774;2024-01-10T11:47:39;6.22;;;3.30;;
29774;SDS011;16676;51.202;6.774;2024-01-10T11:51:43;5.80;;;3.47;;
29774;SDS011;16676;51.202;6.774;2024-01-10T11:55:47;6.20;;;3.10;;
29774;SDS011;16676;51.202;6.774;2024-01-10T11:59:52;6.72;;;3.53;;
29774;SDS011;16676;51.202;6.774;2024-01-10T12:03:54;5.53;;;3.40;;
29774;SDS011;16676;51.202;6.774;2024-01-10T12:07:58;4.85;;;3.17;;
29774;SDS011;16676;51.202;6.774;2024-01-10T12:12:02;5.57;;;3.40;;
29774;SDS011;16676;51.202;6.774;2024-01-10T12:16:05;5.00;;;3.10;;
29774;SDS011;16676;51.202;6.774;2024-01-10T12:20:07;5.75;;;3.60;;
29774;SDS011;16676;51.202;6.774;2024-01-10T12:24:09;5.47;;;3.30;;
29774;SDS011;16676;51.202;6.774;2024-01-10T12:28:16;4.78;;;3.28;;
29774;SDS011;16676;51.202;6.774;2024-01-10T12:32:18;9.20;;;3.03;;
29774;SDS011;16676;51.202;6.774;2024-01-10T12:36:22;4.63;;;3.15;;
29774;SDS011;16676;51.202;6.774;2024-01-10T12:40:24;5.38;;;3.25;;
29774;SDS011;16676;51.202;6.774;2024-01-10T12:44:28;5.38;;;3.53;;
29774;SDS011;16676;51.202;6.774;2024-01-10T12:48:31;5.22;;;3.35;;
29774;SDS011;16676;51.202;6.774;2024-01-10T12:52:36;5.45;;;3.00;;
29774;SDS011;16676;51.202;6.774;2024-01-10T12:56:40;4.20;;;2.78;;
29774;SDS011;16676;51.202;6.774;2024-01-10T13:00:43;4.57;;;3.08;;
29774;SDS011;16676;51.202;6.774;2024-01-10T13:04:45;4.75;;;2.72;;
29774;SDS011;16676;51.202;6.774;2024-01-10T13:08:47;5.55;;;3.00;;
29774;SDS011;16676;51.202;6.774;2024-01-10T13:12:49;5.18;;;3.20;;
29774;SDS011;16676;51.202;6.774;2024-01-10T13:16:53;6.43;;;3.38;;
29774;SDS011;16676;51.202;6.774;2024-01-10T13:20:55;4.68;;;3.08;;
29774;SDS011;16676;51.202;6.774;2024-01-10T13:24:57;5.13;;;3.10;;
29774;SDS011;16676;51.202;6.774;2024-01-10T13:28:59;4.88;;;2.90;;
29774;SDS011;16676;51.202;6.774;2024-01-10T13:33:04;4.70;;;2.88;;
29774;SDS011;16676;51.202;6.774;2024-01-10T13:37:06;5.10;;;3.13;;
29774;SDS011;16676;51.202;6.774;2024-01-10T13:41:10;5.28;;;3.30;;
29774;SDS011;16676;51.202;6.774;2024-01-10T13:45:12;4.68;;;3.03;;
29774;SDS011;16676;51.202;6.774;2024-01-10T13:49:15;4.93;;;3.28;;
29774;SDS011;16676;51.202;6.774;2024-01-10T13:53:18;5.15;;;2.97;;
29774;SDS011;16676;51.202;6.774;2024-01-10T13:57:20;4.20;;;2.53;;
29774;SDS011;16676;51.202;6.774;2024-01-10T14:01:21;4.75;;;2.72;;
29774;SDS011;16676;51.202;6.774;2024-01-10T14:05:25;4.78;;;2.95;;
29774;SDS011;16676;51.202;6.774;2024-01-10T14:09:27;4.82;;;2.95;;
29774;SDS011;16676;51.202;6.774;2024-01-10T14:13:29;4.07;;;3.13;;
29774;SDS011;16676;51.202;6.774;2024-01-10T14:17:31;6.45;;;3.65;;
29774;SDS011;16676;51.202;6.774;2024-01-10T14:21:34;5.10;;;3.05;;
29774;SDS011;16676;51.202;6.774;2024-01-10T14:25:36;5.85;;;3.08;;
29774;SDS011;16676;51.202;6.774;2024-01-10T14:29:38;4.53;;;3.17;;
29774;SDS011;16676;51.202;6.774;2024-01-10T14:33:40;4.90;;;3.30;;
29774;SDS011;16676;51.202;6.774;2024-01-10T14:37:43;6.97;;;3.58;;
29774;SDS011;16676;51.202;6.774;2024-01-10T14:41:45;6.03;;;3.85;;
29774;SDS011;16676;51.202;6.774;2024-01-10T14:45:47;6.32;;;3.75;;
29774;SDS011;16676;51.202;6.774;2024-01-10T14:49:49;5.57;;;3.63;;
29774;SDS011;16676;51.202;6.774;2024-01-10T14:53:53;5.93;;;3.70;;
29774;SDS011;16676;51.202;6.774;2024-01-10T14:57:54;5.75;;;3.65;;
29774;SDS011;16676;51.202;6.774;2024-01-10T15:01:56;5.32;;;3.60;;
29774;SDS011;16676;51.202;6.774;2024-01-10T15:05:58;5.85;;;3.92;;
29774;SDS011;16676;51.202;6.774;2024-01-10T15:10:01;5.13;;;3.40;;
29774;SDS011;16676;51.202;6.774;2024-01-10T15:14:04;5.75;;;3.72;;
29774;SDS011;16676;51.202;6.774;2024-01-10T15:18:06;5.03;;;3.47;;
29774;SDS011;16676;51.202;6.774;2024-01-10T15:22:08;6.03;;;3.85;;
29774;SDS011;16676;51.202;6.774;2024-01-10T15:26:15;7.07;;;3.92;;
29774;SDS011;16676;51.202;6.774;2024-01-10T15:30:18;6.95;;;4.13;;
29774;SDS011;16676;51.202;6.774;2024-01-10T15:34:20;6.55;;;3.85;;
29774;SDS011;16676;51.202;6.774;2024-01-10T15:38:24;4.72;;;3.65;;
29774;SDS011;16676;51.202;6.774;2024-01-10T15:42:28;5.35;;;3.63;;
29774;SDS011;16676;51.202;6.774;2024-01-10T15:46:30;6.00;;;3.90;;
29774;SDS011;16676;51.202;6.774;2024-01-10T15:50:32;5.57;;;3.42;;
29774;SDS011;16676;51.202;6.774;2024-01-10T15:54:34;4.93;;;3.30;;
29774;SDS011;16676;51.202;6.774;2024-01-10T15:58:39;5.13;;;3.47;;
29774;SDS011;16676;51.202;6.774;2024-01-10T16:02:41;5.63;;;3.38;;
29774;SDS011;16676;51.202;6.774;2024-01-10T16:06:43;4.85;;;3.30;;
29774;SDS011;16676;51.202;6.774;2024-01-10T16:10:45;5.97;;;3.83;;
29774;SDS011;16676;51.202;6.774;2024-01-10T16:14:48;5.63;;;3.80;;
29774;SDS011;16676;51.202;6.774;2024-01-10T16:18:50;6.65;;;3.60;;
29774;SDS011;16676;51.202;6.774;2024-01-10T16:22:53;5.07;;;3.63;;
29774;SDS011;16676;51.202;6.774;2024-01-10T16:26:54;8.52;;;5.38;;
29774;SDS011;16676;51.202;6.774;2024-01-10T16:30:58;26.98;;;14.65;;
29774;SDS011;16676;51.202;6.774;2024-01-10T16:35:00;30.38;;;17.08;;
29774;SDS011;16676;51.202;6.774;2024-01-10T16:39:02;27.35;;;15.77;;
29774;SDS011;16676;51.202;6.774;2024-01-10T16:43:04;25.15;;;14.63;;
29774;SDS011;16676;51.202;6.774;2024-01-10T16:47:08;21.67;;;12.38;;
29774;SDS011;16676;51.202;6.774;2024-01-10T16:51:10;25.58;;;13.38;;
29774;SDS011;16676;51.202;6.774;2024-01-10T16:55:12;21.67;;;11.63;;
29774;SDS011;16676;51.202;6.774;2024-01-10T16:59:14;23.45;;;12.13;;
29774;SDS011;16676;51.202;6.774;2024-01-10T17:03:18;20.63;;;11.90;;
29774;SDS011;16676;51.202;6.774;2024-01-10T17:07:21;19.73;;;11.82;;
29774;SDS011;16676;51.202;6.774;2024-01-10T17:11:22;19.92;;;11.88;;
29774;SDS011;16676;51.202;6.774;2024-01-10T17:15:25;19.88;;;11.98;;
29774;SDS011;16676;51.202;6.774;2024-01-10T17:19:28;19.80;;;12.18;;
29774;SDS011;16676;51.202;6.774;2024-01-10T17:23:31;18.38;;;11.82;;
29774;SDS011;16676;51.202;6.774;2024-01-10T17:27:32;20.52;;;11.18;;
29774;SDS011;16676;51.202;6.774;2024-01-10T17:31:34;20.45;;;11.35;;
29774;SDS011;16676;51.202;6.774;2024-01-10T17:35:38;18.92;;;10.90;;
29774;SDS011;16676;51.202;6.774;2024-01-10T17:39:40;19.25;;;11.45;;
29774;SDS011;16676;51.202;6.774;2024-01-10T17:43:42;20.42;;;11.15;;
29774;SDS011;16676;51.202;6.774;2024-01-10T17:47:44;18.17;;;11.05;;
29774;SDS011;16676;51.202;6.774;2024-01-10T17:51:47;25.88;;;11.32;;
29774;SDS011;16676;51.202;6.774;2024-01-10T17:55:49;19.20;;;10.82;;
29774;SDS011;16676;51.202;6.774;2024-01-10T17:59:51;19.30;;;11.07;;
29774;SDS011;16676;51.202;6.774;2024-01-10T18:03:53;20.88;;;11.13;;
29774;SDS011;16676;51.202;6.774;2024-01-10T18:07:56;20.67;;;11.82;;
29774;SDS011;16676;51.202;6.774;2024-01-10T18:11:58;19.27;;;11.23;;
29774;SDS011;16676;51.202;6.774;2024-01-10T18:16:01;19.52;;;11.30;;
29774;SDS011;16676;51.202;6.774;2024-01-10T18:20:03;18.83;;;11.27;;
29774;SDS011;16676;51.202;6.774;2024-01-10T18:24:07;17.83;;;10.75;;
29774;SDS011;16676;51.202;6.774;2024-01-10T18:28:09;15.88;;;10.32;;
29774;SDS011;16676;51.202;6.774;2024-01-10T18:32:11;17.15;;;10.13;;
29774;SDS011;16676;51.202;6.774;2024-01-10T18:36:13;16.73;;;9.85;;
29774;SDS011;16676;51.202;6.774;2024-01-10T18:40:17;19.45;;;10.80;;
29774;SDS011;16676;51.202;6.774;2024-01-10T18:44:20;16.98;;;10.48;;
29774;SDS011;16676;51.202;6.774;2024-01-10T18:48:22;18.88;;;11.15;;
29774;SDS011;16676;51.202;6.774;2024-01-10T18:52:24;17.75;;;10.52;;
29774;SDS011;16676;51.202;6.774;2024-01-10T18:56:28;16.52;;;9.82;;
29774;SDS011;16676;51.202;6.774;2024-01-10T19:00:30;15.77;;;10.27;;
29774;SDS011;16676;51.202;6.774;2024-01-10T19:04:32;15.40;;;9.65;;
29774;SDS011;16676;51.202;6.774;2024-01-10T19:08:34;18.15;;;10.05;;
29774;SDS011;16676;51.202;6.774;2024-01-10T19:12:37;19.67;;;10.50;;
29774;SDS011;16676;51.202;6.774;2024-01-10T19:16:39;18.45;;;9.73;;
29774;SDS011;16676;51.202;6.774;2024-01-10T19:20:43;16.63;;;9.50;;
29774;SDS011;16676;51.202;6.774;2024-01-10T19:24:45;15.05;;;9.32;;
29774;SDS011;16676;51.202;6.774;2024-01-10T19:28:48;15.70;;;9.73;;
29774;SDS011;16676;51.202;6.774;2024-01-10T19:32:51;14.68;;;8.48;;
29774;SDS011;16676;51.202;6.774;2024-01-10T19:36:53;15.23;;;9.23;;
29774;SDS011;16676;51.202;6.774;2024-01-10T19:40:55;15.27;;;8.48;;
29774;SDS011;16676;51.202;6.774;2024-01-10T19:44:58;14.73;;;8.98;;
29774;SDS011;16676;51.202;6.774;2024-01-10T19:49:00;14.60;;;9.13;;
29774;SDS011;16676;51.202;6.774;2024-01-10T19:53:02;15.95;;;9.48;;
29774;SDS011;16676;51.202;6.774;2024-01-10T19:57:04;14.15;;;8.65;;
29774;SDS011;16676;51.202;6.774;2024-01-10T20:01:08;14.82;;;8.18;;
29774;SDS011;16676;51.202;6.774;2024-01-10T20:05:10;14.35;;;8.38;;
29774;SDS011;16676;51.202;6.774;2024-01-10T20:09:12;11.50;;;7.00;;
29774;SDS011;16676;51.202;6.774;2024-01-10T20:13:15;12.68;;;7.90;;
29774;SDS011;16676;51.202;6.774;2024-01-10T20:17:19;14.93;;;7.63;;
29774;SDS011;16676;51.202;6.774;2024-01-10T20:21:21;13.32;;;8.52;;
29774;SDS011;16676;51.202;6.774;2024-01-10T20:25:23;14.00;;;8.15;;
29774;SDS011;16676;51.202;6.774;2024-01-10T20:29:26;13.68;;;8.75;;
29774;SDS011;16676;51.202;6.774;2024-01-10T20:33:29;13.50;;;8.52;;
29774;SDS011;16676;51.202;6.774;2024-01-10T20:37:31;13.85;;;9.20;;
29774;SDS011;16676;51.202;6.774;2024-01-10T20:41:33;11.43;;;8.00;;
29774;SDS011;16676;51.202;6.774;2024-01-10T20:45:35;13.93;;;8.20;;
29774;SDS011;16676;51.202;6.774;2024-01-10T20:49:38;13.77;;;9.15;;
29774;SDS011;16676;51.202;6.774;2024-01-10T20:53:41;14.30;;;8.82;;
29774;SDS011;16676;51.202;6.774;2024-01-10T20:57:42;14.02;;;9.00;;
29774;SDS011;16676;51.202;6.774;2024-01-10T21:01:44;15.50;;;9.60;;
29774;SDS011;16676;51.202;6.774;2024-01-10T21:05:48;15.57;;;9.00;;
29774;SDS011;16676;51.202;6.774;2024-01-10T21:09:50;14.95;;;9.48;;
29774;SDS011;16676;51.202;6.774;2024-01-10T21:13:52;13.25;;;9.18;;
29774;SDS011;16676;51.202;6.774;2024-01-10T21:17:54;16.13;;;9.77;;
29774;SDS011;16676;51.202;6.774;2024-01-10T21:21:57;16.23;;;9.63;;
29774;SDS011;16676;51.202;6.774;2024-01-10T21:25:59;15.07;;;10.05;;
29774;SDS011;16676;51.202;6.774;2024-01-10T21:30:01;15.10;;;9.93;;
29774;SDS011;16676;51.202;6.774;2024-01-10T21:34:04;12.85;;;9.02;;
29774;SDS011;16676;51.202;6.774;2024-01-10T21:38:07;12.63;;;9.13;;
29774;SDS011;16676;51.202;6.774;2024-01-10T21:42:09;14.82;;;9.23;;
29774;SDS011;16676;51.202;6.774;2024-01-10T21:46:11;14.13;;;9.55;;
29774;SDS011;16676;51.202;6.774;2024-01-10T21:50:13;14.77;;;9.00;;
29774;SDS011;16676;51.202;6.774;2024-01-10T21:54:16;13.93;;;9.98;;
29774;SDS011;16676;51.202;6.774;2024-01-10T21:58:18;15.68;;;9.23;;
29774;SDS011;16676;51.202;6.774;2024-01-10T22:02:20;13.13;;;9.18;;
29774;SDS011;16676;51.202;6.774;2024-01-10T22:06:22;14.60;;;8.98;;
29774;SDS011;16676;51.202;6.774;2024-01-10T22:10:26;13.75;;;9.20;;
29774;SDS011;16676;51.202;6.774;2024-01-10T22:14:27;12.57;;;8.57;;
29774;SDS011;16676;51.202;6.774;2024-01-10T22:18:29;14.48;;;9.15;;
29774;SDS011;16676;51.202;6.774;2024-01-10T22:22:31;11.93;;;8.00;;
29774;SDS011;16676;51.202;6.774;2024-01-10T22:26:34;12.88;;;8.52;;
29774;SDS011;16676;51.202;6.774;2024-01-10T22:30:36;15.98;;;9.52;;
29774;SDS011;16676;51.202;6.774;2024-01-10T22:34:38;13.05;;;8.50;;
29774;SDS011;16676;51.202;6.774;2024-01-10T22:38:40;14.98;;;9.02;;
29774;SDS011;16676;51.202;6.774;2024-01-10T22:42:43;13.88;;;8.40;;
29774;SDS011;16676;51.202;6.774;2024-01-10T22:46:45;13.90;;;8.98;;
29774;SDS011;16676;51.202;6.774;2024-01-10T22:50:47;15.68;;;9.27;;
29774;SDS011;16676;51.202;6.774;2024-01-10T22:54:49;14.85;;;8.82;;
29774;SDS011;16676;51.202;6.774;2024-01-10T22:58:53;14.85;;;8.60;;
29774;SDS011;16676;51.202;6.774;2024-01-10T23:02:55;12.65;;;8.85;;
29774;SDS011;16676;51.202;6.774;2024-01-10T23:06:58;14.05;;;8.60;;
29774;SDS011;16676;51.202;6.774;2024-01-10T23:11:00;13.05;;;8.32;;
29774;SDS011;16676;51.202;6.774;2024-01-10T23:15:04;13.10;;;8.63;;
29774;SDS011;16676;51.202;6.774;2024-01-10T23:19:08;14.00;;;8.65;;
29774;SDS011;16676;51.202;6.774;2024-01-10T23:23:10;13.15;;;7.97;;
29774;SDS011;16676;51.202;6.774;2024-01-10T23:27:12;12.40;;;8.43;;
29774;SDS011;16676;51.202;6.774;2024-01-10T23:31:16;14.00;;;7.78;;
29774;SDS011;16676;51.202;6.774;2024-01-10T23:35:18;11.45;;;7.80;;
29774;SDS011;16676;51.202;6.774;2024-01-10T23:39:20;13.98;;;8.68;;
29774;SDS011;16676;51.202;6.774;2024-01-10T23:43:22;14.60;;;8.55;;
29774;SDS011;16676;51.202;6.774;2024-01-10T23:47:25;15.05;;;8.00;;
29774;SDS011;16676;51.202;6.774;2024-01-10T23:51:27;14.80;;;8.40;;
29774;SDS011;16676;51.202;6.774;2024-01-10T23:55:29;11.95;;;7.70;;
29774;SDS011;16676;51.202;6.774;2024-01-10T23:59:31;13.13;;;7.65;;
